CCT weather

CLOSED Colonia Catriel Airport
Colonia Catriel, Río Negro Province, Argentina

Public forecast

Using degrees Celsius for public forecast. Weather courtesy of forecast.io.

Closest aviation weather report (METAR) to Colonia Catriel Airport

Closest report is Presidente Peron Airport, 64.2 nm (118.8 km) SSW. Retrieved 2020/02/19 06:00 UTC (43 minutes ago):

SAZN 190600Z 25006KT CAVOK 22/08 Q1010

Closest aviation forecast (TAF) to Colonia Catriel Airport

Closest forecast is Presidente Peron Airport, 64.2 nm (118.8 km) SSW. Retrieved 2020/02/19 06:00 UTC (43 minutes ago):

TAF SAZN 190500Z 1906/2006 23005KT CAVOK TX26/1918Z TN14/1910Z BECMG 1911/1913 25015KT BECMG 1923/2001 16010KT